Time;durP1;ratioP1;P1;durP2;ratioP2;P2;SDS_P1;SDS_P2;PMS_P1;PMS_P2;Temp;Humidity;BMP_temperature;BMP_pressure;BME280_temperature;BME280_humidity;BME280_pressure;Samples;Min_cycle;Max_cycle;Signal;HPM_P1;HPM_P2
2023/04/27 04:00:46;;;;;;;2.80;1.70;;;11.40;68.10;;;;;;5998986;23;21518;-73
2023/04/27 04:03:12;;;;;;;2.53;1.77;;;11.40;68.10;;;;;;4976800;28;20426;-74
2023/04/27 04:05:39;;;;;;;2.50;2.00;;;11.40;68.40;;;;;;4976600;28;20482;-73
2023/04/27 04:08:06;;;;;;;2.40;2.03;;;11.40;68.60;;;;;;4976380;28;20458;-73
2023/04/27 04:10:32;;;;;;;3.00;2.17;;;11.50;68.20;;;;;;4976075;28;20881;-76
2023/04/27 04:12:59;;;;;;;3.10;2.00;;;11.50;68.20;;;;;;4975925;28;20939;-75
2023/04/27 04:15:26;;;;;;;2.97;2.07;;;11.50;68.20;;;;;;4975917;28;20970;-75
2023/04/27 04:17:54;;;;;;;3.03;2.73;;;11.50;67.50;;;;;;4976943;28;20471;-74
2023/04/27 04:20:21;;;;;;;3.90;2.13;;;11.50;67.70;;;;;;4976448;28;20458;-75
2023/04/27 04:22:47;;;;;;;3.00;2.70;;;11.50;67.40;;;;;;4976601;28;20545;-76
2023/04/27 04:25:14;;;;;;;2.40;2.07;;;11.60;67.00;;;;;;4976168;28;20493;-76
2023/04/27 04:27:41;;;;;;;3.30;2.60;;;11.60;67.10;;;;;;4976473;28;20446;-76
2023/04/27 04:30:09;;;;;;;2.80;2.47;;;11.50;67.30;;;;;;4976079;28;20553;-76
2023/04/27 04:32:37;;;;;;;2.53;2.20;;;11.50;67.90;;;;;;4975801;28;20557;-76
2023/04/27 04:35:06;;;;;;;3.70;2.47;;;11.50;68.00;;;;;;4976187;28;20456;-76
2023/04/27 04:37:35;;;;;;;2.40;1.97;;;11.50;67.80;;;;;;4975848;28;20446;-76
2023/04/27 04:40:07;;;;;;;2.60;2.20;;;11.60;67.80;;;;;;4975777;28;20492;-75
2023/04/27 04:42:34;;;;;;;3.37;2.20;;;11.60;67.40;;;;;;4975721;28;20470;-76
2023/04/27 04:45:02;;;;;;;3.00;2.07;;;11.60;67.10;;;;;;4975713;28;20446;-75
2023/04/27 04:47:30;;;;;;;2.73;2.27;;;11.60;66.90;;;;;;4975667;28;20465;-76
2023/04/27 04:49:57;;;;;;;3.60;2.40;;;11.60;67.40;;;;;;4975710;28;20494;-77
2023/04/27 04:52:25;;;;;;;2.10;1.90;;;11.60;67.80;;;;;;4975586;28;20891;-76
2023/04/27 04:54:52;;;;;;;3.00;2.50;;;11.70;67.60;;;;;;4975964;28;20497;-76
2023/04/27 04:57:19;;;;;;;2.73;2.10;;;11.60;68.00;;;;;;4975461;28;20447;-77
2023/04/27 04:59:45;;;;;;;3.77;1.90;;;11.70;68.50;;;;;;4975384;28;20462;-76
2023/04/27 05:02:12;;;;;;;4.40;2.70;;;11.70;68.00;;;;;;4975245;28;20478;-77
2023/04/27 05:04:39;;;;;;;3.07;1.87;;;11.70;68.10;;;;;;4975296;28;20505;-76
2023/04/27 05:07:05;;;;;;;2.83;1.97;;;11.70;67.70;;;;;;4975133;28;20906;-76
2023/04/27 05:09:34;;;;;;;3.03;2.10;;;11.50;67.80;;;;;;4975287;28;20545;-76
2023/04/27 05:12:01;;;;;;;2.50;1.60;;;11.30;68.60;;;;;;4975158;28;20525;-76
2023/04/27 05:14:28;;;;;;;2.30;1.90;;;11.30;68.60;;;;;;4975171;28;20517;-76
2023/04/27 05:16:55;;;;;;;2.07;1.60;;;11.40;68.60;;;;;;4975036;28;20447;-76
2023/04/27 05:19:21;;;;;;;11.23;2.63;;;11.50;68.70;;;;;;4975004;28;20454;-77
2023/04/27 05:21:48;;;;;;;2.90;1.87;;;11.60;68.70;;;;;;4974663;28;20983;-76
2023/04/27 05:24:14;;;;;;;2.43;1.87;;;11.60;68.70;;;;;;4974990;28;20451;-76
2023/04/27 05:26:43;;;;;;;2.63;1.70;;;11.60;68.20;;;;;;4974865;28;20482;-75
2023/04/27 05:29:10;;;;;;;2.83;2.43;;;11.60;69.30;;;;;;4974880;28;20879;-75
2023/04/27 05:31:37;;;;;;;2.60;2.10;;;11.50;68.60;;;;;;4974967;28;20474;-76
2023/04/27 05:34:03;;;;;;;2.40;1.90;;;11.40;69.60;;;;;;4974996;28;20483;-75
2023/04/27 05:36:31;;;;;;;2.20;1.70;;;11.50;69.80;;;;;;4974445;28;20830;-75
2023/04/27 05:38:57;;;;;;;2.50;1.87;;;11.50;69.30;;;;;;4974663;28;20486;-75
2023/04/27 05:41:24;;;;;;;3.20;2.20;;;11.60;70.20;;;;;;4974649;28;20470;-76
2023/04/27 05:43:52;;;;;;;2.60;1.77;;;11.60;69.30;;;;;;4974729;28;20508;-76
2023/04/27 05:46:19;;;;;;;2.20;1.90;;;11.70;68.20;;;;;;4974747;28;21033;-75
2023/04/27 05:48:46;;;;;;;3.20;2.07;;;11.50;68.20;;;;;;4974629;28;20485;-75
2023/04/27 05:51:13;;;;;;;3.10;2.30;;;11.50;68.50;;;;;;4974776;28;20536;-75
2023/04/27 05:53:40;;;;;;;3.90;2.33;;;11.50;66.10;;;;;;4974594;28;20473;-74
2023/04/27 05:56:07;;;;;;;2.30;1.77;;;11.60;67.10;;;;;;4974971;28;20497;-75
2023/04/27 05:58:34;;;;;;;2.27;1.63;;;11.90;66.50;;;;;;4974520;28;20466;-75
2023/04/27 06:01:03;;;;;;;2.50;2.00;;;11.80;66.20;;;;;;4974536;28;20900;-75
2023/04/27 06:03:30;;;;;;;3.03;1.70;;;11.80;65.70;;;;;;4974346;28;20525;-75
2023/04/27 06:05:57;;;;;;;2.87;2.23;;;11.60;66.00;;;;;;4974278;28;20494;-75
2023/04/27 06:08:24;;;;;;;2.37;1.93;;;11.70;66.60;;;;;;4973837;28;20454;-75
2023/04/27 06:10:51;;;;;;;2.53;2.10;;;11.50;65.80;;;;;;4974174;28;20474;-75
2023/04/27 06:13:18;;;;;;;2.13;1.77;;;11.20;65.70;;;;;;4974443;28;20462;-74
2023/04/27 06:15:44;;;;;;;2.60;1.87;;;11.60;65.80;;;;;;4974200;28;20451;-75
2023/04/27 06:18:13;;;;;;;3.70;2.33;;;11.80;65.80;;;;;;4974338;28;20452;-75
2023/04/27 06:20:40;;;;;;;2.93;1.90;;;12.10;66.50;;;;;;4973675;28;20451;-75
2023/04/27 06:23:07;;;;;;;2.50;2.13;;;12.40;66.60;;;;;;4973780;28;20947;-74
2023/04/27 06:25:34;;;;;;;2.80;2.23;;;12.40;65.10;;;;;;4973941;28;20513;-74
2023/04/27 06:28:01;;;;;;;3.07;1.90;;;12.30;67.00;;;;;;4973939;28;20537;-74
2023/04/27 06:30:27;;;;;;;3.90;2.10;;;12.00;69.30;;;;;;4974014;28;20481;-75
2023/04/27 06:32:54;;;;;;;3.07;2.43;;;12.00;69.90;;;;;;4974078;28;20597;-74
2023/04/27 06:35:22;;;;;;;2.77;2.00;;;11.90;70.00;;;;;;4974090;28;20446;-74
2023/04/27 06:37:49;;;;;;;3.67;2.27;;;12.20;67.50;;;;;;4973957;28;20492;-75
2023/04/27 06:40:15;;;;;;;2.30;1.90;;;12.50;66.20;;;;;;4974002;28;20450;-74
2023/04/27 06:42:42;;;;;;;2.30;1.90;;;12.40;64.80;;;;;;4973827;28;20496;-75
2023/04/27 06:45:10;;;;;;;2.67;1.73;;;12.60;65.10;;;;;;4973922;28;20920;-74
2023/04/27 06:47:37;;;;;;;3.00;2.30;;;12.70;64.80;;;;;;4974018;28;20486;-74
2023/04/27 06:50:04;;;;;;;2.60;2.00;;;12.70;64.30;;;;;;4976423;28;20450;-74
2023/04/27 06:52:33;;;;;;;2.60;2.13;;;12.80;65.00;;;;;;4974070;28;20474;-75
2023/04/27 06:54:59;;;;;;;2.00;1.60;;;12.70;64.80;;;;;;4974277;28;20482;-75
2023/04/27 06:57:26;;;;;;;2.43;1.97;;;12.70;65.60;;;;;;4974978;28;20450;-76
2023/04/27 06:59:53;;;;;;;2.43;2.03;;;12.90;64.50;;;;;;4975612;28;20508;-75
2023/04/27 07:02:19;;;;;;;2.60;1.87;;;13.00;64.80;;;;;;4974132;28;20597;-74
2023/04/27 07:04:46;;;;;;;2.17;1.70;;;12.90;64.90;;;;;;4974174;28;20504;-74
2023/04/27 07:07:13;;;;;;;2.50;1.70;;;13.20;63.50;;;;;;4973996;28;21058;-74
2023/04/27 07:09:41;;;;;;;2.50;1.80;;;13.20;63.00;;;;;;4974451;28;20457;-75
2023/04/27 07:12:08;;;;;;;4.03;2.17;;;13.20;63.90;;;;;;4974328;28;20852;-75
2023/04/27 07:14:35;;;;;;;2.80;1.83;;;13.40;61.60;;;;;;4974530;28;20450;-75
2023/04/27 07:17:01;;;;;;;2.73;1.77;;;13.90;60.90;;;;;;4974000;28;20454;-75
2023/04/27 07:19:28;;;;;;;3.07;1.60;;;14.40;59.40;;;;;;4976308;28;20944;-75
2023/04/27 07:21:54;;;;;;;2.40;1.70;;;14.90;57.50;;;;;;4977706;28;20465;-75
2023/04/27 07:24:21;;;;;;;2.67;1.77;;;15.20;56.20;;;;;;4977449;28;20505;-74
2023/04/27 07:26:49;;;;;;;4.00;1.67;;;15.20;56.00;;;;;;4977440;28;20532;-75
2023/04/27 07:29:16;;;;;;;2.40;1.90;;;14.90;57.30;;;;;;4977420;28;20600;-75
2023/04/27 07:31:42;;;;;;;2.43;1.63;;;14.60;58.10;;;;;;4977351;28;20557;-75
2023/04/27 07:34:10;;;;;;;2.60;1.60;;;14.50;58.80;;;;;;4977136;28;20501;-75
2023/04/27 07:36:37;;;;;;;2.37;1.70;;;14.30;59.30;;;;;;4977130;28;20559;-75
2023/04/27 07:39:05;;;;;;;4.53;2.30;;;14.90;60.20;;;;;;4976743;28;20809;-76
2023/04/27 07:41:33;;;;;;;2.50;1.60;;;15.10;58.00;;;;;;4976860;28;20512;-76
2023/04/27 07:44:01;;;;;;;2.50;1.83;;;15.30;56.90;;;;;;4977898;28;20536;-76
2023/04/27 07:46:29;;;;;;;2.97;1.83;;;15.60;57.30;;;;;;4977484;28;20544;-75
2023/04/27 07:48:58;;;;;;;2.53;1.80;;;15.70;56.90;;;;;;4976950;28;20458;-76
2023/04/27 07:51:27;;;;;;;2.30;1.57;;;15.50;56.50;;;;;;4976779;28;20458;-75
2023/04/27 07:53:54;;;;;;;2.70;1.70;;;15.90;56.60;;;;;;4976990;28;20454;-76
2023/04/27 07:56:20;;;;;;;2.67;1.60;;;15.90;54.80;;;;;;4976864;28;20501;-75
2023/04/27 07:58:47;;;;;;;2.00;1.40;;;15.90;55.20;;;;;;4976774;28;20541;-75
2023/04/27 08:01:15;;;;;;;3.10;1.90;;;15.70;55.40;;;;;;4976998;28;20514;-76
2023/04/27 08:03:42;;;;;;;2.20;1.57;;;15.90;56.60;;;;;;4976821;28;20431;-75
2023/04/27 08:06:08;;;;;;;2.40;1.60;;;15.80;56.50;;;;;;4976333;28;20454;-74
2023/04/27 08:08:35;;;;;;;3.93;2.53;;;15.90;55.90;;;;;;4976331;28;20943;-73
2023/04/27 08:11:01;;;;;;;1.90;1.47;;;16.10;56.20;;;;;;4976186;28;20509;-74
2023/04/27 08:13:28;;;;;;;2.73;1.73;;;16.50;54.00;;;;;;4977253;28;20453;-74
2023/04/27 08:15:57;;;;;;;2.47;1.60;;;16.50;54.80;;;;;;4976414;28;20450;-73
2023/04/27 08:18:26;;;;;;;2.87;2.03;;;16.10;54.30;;;;;;4976617;28;20450;-74
2023/04/27 08:20:52;;;;;;;2.37;1.60;;;15.90;53.80;;;;;;4976445;28;20834;-74
2023/04/27 08:23:19;;;;;;;2.40;1.63;;;15.80;54.20;;;;;;4976391;28;20505;-74
2023/04/27 08:25:46;;;;;;;1.80;1.37;;;16.00;54.90;;;;;;4976253;28;20545;-74
2023/04/27 08:28:13;;;;;;;2.20;1.60;;;15.80;52.20;;;;;;4976189;28;20573;-74
2023/04/27 08:30:41;;;;;;;2.07;1.40;;;15.90;54.90;;;;;;4975520;28;20442;-74
2023/04/27 08:33:08;;;;;;;2.47;1.60;;;16.20;51.90;;;;;;4976874;28;20458;-74
2023/04/27 08:35:36;;;;;;;2.73;1.90;;;16.50;53.60;;;;;;4975824;28;21019;-74
2023/04/27 08:38:02;;;;;;;3.30;2.00;;;16.30;55.50;;;;;;4975880;28;20841;-77
2023/04/27 08:40:29;;;;;;;3.80;2.40;;;16.10;56.20;;;;;;4976139;28;20446;-75
2023/04/27 08:42:57;;;;;;;4.30;1.90;;;16.00;56.10;;;;;;4975902;28;20442;-74
2023/04/27 08:45:25;;;;;;;3.23;1.80;;;16.00;57.80;;;;;;4975820;28;20454;-74
2023/04/27 08:47:52;;;;;;;2.40;1.70;;;16.30;57.70;;;;;;4975777;28;20517;-74
2023/04/27 08:50:20;;;;;;;3.33;1.70;;;16.40;55.20;;;;;;4975524;28;20817;-74
2023/04/27 08:52:49;;;;;;;3.30;1.80;;;16.50;56.10;;;;;;4976537;28;20813;-75
2023/04/27 08:55:16;;;;;;;2.63;1.80;;;16.60;55.60;;;;;;4975754;28;20446;-75
2023/04/27 08:57:53;;;;;;;2.67;1.90;;;16.90;55.60;;;;;;4975813;28;20446;-75
2023/04/27 09:00:24;;;;;;;3.03;1.87;;;17.10;54.30;;;;;;4975869;28;20445;-74
2023/04/27 09:02:51;;;;;;;2.60;1.77;;;17.40;54.40;;;;;;4975760;28;20458;-74
2023/04/27 09:05:18;;;;;;;2.20;1.50;;;17.10;54.10;;;;;;4976805;28;20508;-75
2023/04/27 09:08:01;;;;;;;3.40;1.70;;;17.40;54.10;;;;;;4975893;28;20999;-75
2023/04/27 09:10:28;;;;;;;3.20;2.30;;;17.20;52.60;;;;;;4975665;28;20521;-75
2023/04/27 09:12:57;;;;;;;2.57;2.00;;;17.10;52.50;;;;;;4975668;28;20886;-75
2023/04/27 09:15:23;;;;;;;2.83;2.13;;;16.90;52.90;;;;;;4976224;28;20943;-74
2023/04/27 09:17:55;;;;;;;2.70;2.00;;;16.80;52.40;;;;;;4976853;28;20450;-74
2023/04/27 09:20:21;;;;;;;2.80;2.20;;;16.70;53.60;;;;;;4975647;28;21015;-74
2023/04/27 09:22:50;;;;;;;2.27;2.00;;;16.70;54.00;;;;;;4975406;28;20453;-75
2023/04/27 09:25:25;;;;;;;2.37;1.80;;;16.80;54.20;;;;;;4975659;28;20453;-76
2023/04/27 09:27:52;;;;;;;2.67;1.87;;;16.90;54.20;;;;;;4975266;28;20528;-75
2023/04/27 09:30:19;;;;;;;3.30;2.00;;;16.60;53.40;;;;;;4975388;28;20951;-74
2023/04/27 09:32:54;;;;;;;2.10;1.60;;;16.60;55.00;;;;;;4975083;28;20451;-74
2023/04/27 09:35:24;;;;;;;2.37;1.77;;;16.60;54.20;;;;;;4975275;28;20804;-74
2023/04/27 09:37:52;;;;;;;4.20;2.07;;;17.00;50.40;;;;;;4974940;28;20451;-75
2023/04/27 09:40:19;;;;;;;2.70;1.70;;;17.20;52.10;;;;;;4974866;28;20541;-75
2023/04/27 09:42:48;;;;;;;3.23;2.00;;;17.00;52.90;;;;;;4974110;28;20521;-75
2023/04/27 09:45:15;;;;;;;2.50;1.70;;;17.30;52.30;;;;;;4974788;28;20959;-75
2023/04/27 09:47:43;;;;;;;2.93;1.50;;;17.10;50.60;;;;;;4975050;28;20481;-76
2023/04/27 09:50:12;;;;;;;2.20;1.50;;;16.80;51.90;;;;;;4975295;28;20490;-75
2023/04/27 09:52:39;;;;;;;3.70;2.17;;;17.20;52.60;;;;;;4974763;28;20994;-76
2023/04/27 09:55:09;;;;;;;2.10;1.60;;;17.50;50.20;;;;;;4974665;28;20450;-75
2023/04/27 09:57:40;;;;;;;2.80;1.40;;;17.50;49.30;;;;;;4975156;28;20533;-76
2023/04/27 10:00:20;;;;;;;2.20;1.23;;;17.40;48.80;;;;;;4974493;28;20486;-76
2023/04/27 10:02:58;;;;;;;1.83;1.33;;;17.70;50.10;;;;;;4974896;28;20569;-77
2023/04/27 10:05:38;;;;;;;2.70;1.30;;;18.00;44.60;;;;;;4974880;28;20430;-76
2023/04/27 10:08:06;;;;;;;2.00;1.40;;;18.50;46.60;;;;;;4974905;28;20470;-76
2023/04/27 10:10:43;;;;;;;2.20;1.20;;;19.00;44.50;;;;;;4974539;28;20454;-76
2023/04/27 10:13:21;;;;;;;2.20;1.37;;;19.30;46.50;;;;;;4974769;28;20525;-76
2023/04/27 10:15:51;;;;;;;3.60;1.10;;;19.50;44.30;;;;;;4974354;28;20513;-76
2023/04/27 10:18:27;;;;;;;2.33;1.20;;;19.70;43.00;;;;;;4974718;28;20928;-76
2023/04/27 10:20:54;;;;;;;1.80;1.10;;;19.70;42.60;;;;;;4974362;28;20841;-76
2023/04/27 10:23:25;;;;;;;2.27;1.30;;;19.90;43.30;;;;;;4974340;28;20461;-76
2023/04/27 10:25:53;;;;;;;1.67;1.10;;;20.00;43.50;;;;;;4974329;28;20453;-75
2023/04/27 10:28:20;;;;;;;2.00;1.00;;;20.10;42.30;;;;;;4974170;28;20493;-76
2023/04/27 10:30:48;;;;;;;1.87;1.10;;;20.10;40.90;;;;;;4973941;28;20536;-76
2023/04/27 10:33:22;;;;;;;2.33;1.30;;;19.60;42.60;;;;;;4973679;28;20795;-76
2023/04/27 10:35:56;;;;;;;2.23;1.57;;;19.40;43.80;;;;;;4973790;28;20916;-76
2023/04/27 10:38:28;;;;;;;2.30;1.50;;;19.00;44.10;;;;;;4974063;28;20434;-77
2023/04/27 10:40:56;;;;;;;2.13;1.40;;;18.70;45.00;;;;;;4973695;28;20944;-77
2023/04/27 10:43:26;;;;;;;2.53;1.10;;;18.50;45.10;;;;;;4974349;28;20446;-77
2023/04/27 10:45:55;;;;;;;2.43;1.10;;;18.80;45.20;;;;;;4974136;28;20474;-76
2023/04/27 10:48:22;;;;;;;1.83;1.40;;;19.10;43.80;;;;;;4974156;28;20569;-76
2023/04/27 10:50:51;;;;;;;1.67;1.00;;;18.70;43.30;;;;;;4973835;28;20557;-76
2023/04/27 10:53:18;;;;;;;2.90;1.47;;;18.70;46.00;;;;;;4975277;28;20456;-76
2023/04/27 10:55:45;;;;;;;2.40;1.40;;;19.20;46.10;;;;;;4977887;28;20449;-76
2023/04/27 10:58:12;;;;;;;2.00;1.20;;;19.50;43.00;;;;;;4977915;28;20457;-75
2023/04/27 11:00:42;;;;;;;3.10;1.57;;;19.10;44.50;;;;;;4977828;28;20449;-75
2023/04/27 11:03:15;;;;;;;2.83;1.83;;;18.50;44.20;;;;;;4978002;28;20434;-76
2023/04/27 11:05:42;;;;;;;2.40;1.67;;;18.60;46.80;;;;;;4978872;28;20439;-77
2023/04/27 11:08:11;;;;;;;2.00;1.47;;;18.60;46.90;;;;;;4978552;28;20489;-77
2023/04/27 11:10:40;;;;;;;2.20;1.53;;;18.60;47.90;;;;;;4979277;28;20944;-78
2023/04/27 11:13:08;;;;;;;2.43;1.57;;;18.70;49.50;;;;;;4980332;28;20477;-78
2023/04/27 11:15:46;;;;;;;1.93;1.50;;;18.70;48.50;;;;;;4986361;28;20446;-78
2023/04/27 11:18:16;;;;;;;1.90;1.40;;;18.80;48.10;;;;;;4986722;28;20454;-79
2023/04/27 11:20:44;;;;;;;2.33;1.67;;;18.80;47.30;;;;;;4980903;28;20470;-79
2023/04/27 11:23:10;;;;;;;2.90;1.83;;;18.90;48.20;;;;;;4981114;28;20822;-79
2023/04/27 11:25:37;;;;;;;5.60;1.67;;;19.00;45.10;;;;;;4979874;28;20847;-78
2023/04/27 11:28:05;;;;;;;2.17;1.40;;;18.70;44.80;;;;;;4979630;28;20540;-79
2023/04/27 11:30:31;;;;;;;2.30;1.30;;;18.60;46.40;;;;;;4979259;28;20466;-77
2023/04/27 11:32:58;;;;;;;2.63;1.20;;;18.30;46.70;;;;;;4978018;28;20452;-77
2023/04/27 11:35:36;;;;;;;2.10;1.37;;;18.30;47.20;;;;;;4977222;28;20848;-77
2023/04/27 11:38:02;;;;;;;2.20;1.40;;;18.40;47.20;;;;;;4977736;28;20442;-77
2023/04/27 11:40:29;;;;;;;1.97;1.43;;;18.80;45.90;;;;;;4980566;28;20462;-76
2023/04/27 11:43:02;;;;;;;2.43;1.30;;;19.00;46.70;;;;;;4992852;28;20585;-75
2023/04/27 11:45:30;;;;;;;2.33;1.43;;;19.30;47.20;;;;;;4994664;28;20490;-78
2023/04/27 11:47:58;;;;;;;2.47;1.40;;;19.40;46.40;;;;;;4977453;28;21003;-78
2023/04/27 11:50:25;;;;;;;2.20;1.40;;;19.50;45.30;;;;;;4976956;28;20454;-77
2023/04/27 11:52:54;;;;;;;2.20;1.10;;;19.60;45.40;;;;;;4977204;28;20546;-78
2023/04/27 11:55:21;;;;;;;1.97;1.30;;;19.80;46.00;;;;;;4976563;28;20936;-77
2023/04/27 11:57:48;;;;;;;2.90;1.67;;;20.00;46.40;;;;;;4976740;28;20958;-77
2023/04/27 12:00:16;;;;;;;2.13;1.10;;;20.20;45.70;;;;;;4976668;28;21031;-77
2023/04/27 12:02:43;;;;;;;4.10;1.50;;;20.20;45.70;;;;;;4976334;28;20909;-77
2023/04/27 12:05:10;;;;;;;1.90;1.30;;;20.40;45.80;;;;;;4976000;28;20516;-76
2023/04/27 12:07:37;;;;;;;2.20;1.30;;;20.40;45.30;;;;;;4977097;28;20548;-76
2023/04/27 12:10:06;;;;;;;2.97;1.43;;;20.20;45.50;;;;;;4977016;28;20931;-75
2023/04/27 12:12:33;;;;;;;2.47;1.23;;;20.20;45.10;;;;;;4977220;28;20466;-76
2023/04/27 12:15:00;;;;;;;2.80;1.20;;;20.30;44.80;;;;;;4977170;28;20827;-77
2023/04/27 12:17:27;;;;;;;1.80;1.17;;;20.40;45.80;;;;;;4977382;28;20509;-77
2023/04/27 12:19:54;;;;;;;2.20;1.37;;;20.50;44.10;;;;;;4977472;28;20482;-77
2023/04/27 12:22:21;;;;;;;2.33;1.50;;;20.40;45.30;;;;;;4977649;28;20875;-77
2023/04/27 12:24:47;;;;;;;2.70;1.43;;;20.40;45.50;;;;;;4977841;28;20818;-77
2023/04/27 12:27:15;;;;;;;2.40;1.20;;;20.30;45.00;;;;;;4977150;28;20451;-77
2023/04/27 12:29:42;;;;;;;2.27;1.53;;;20.20;45.30;;;;;;4976871;28;20856;-77
2023/04/27 12:32:09;;;;;;;2.03;1.40;;;20.20;45.50;;;;;;4976869;28;20549;-77
2023/04/27 12:34:38;;;;;;;1.80;1.13;;;20.30;44.50;;;;;;4976624;28;20465;-77
2023/04/27 12:37:04;;;;;;;1.70;1.00;;;20.40;44.90;;;;;;4976344;28;20990;-77
2023/04/27 12:39:31;;;;;;;2.27;1.10;;;20.20;44.50;;;;;;4976583;28;20449;-76
2023/04/27 12:41:58;;;;;;;2.10;1.20;;;19.70;45.10;;;;;;4976101;28;20474;-76
2023/04/27 12:44:26;;;;;;;1.73;1.00;;;19.90;46.30;;;;;;4976330;28;20454;-76
2023/04/27 12:46:53;;;;;;;2.33;1.20;;;20.00;46.80;;;;;;4976812;28;20453;-77
2023/04/27 12:49:20;;;;;;;1.87;1.10;;;20.20;46.90;;;;;;4975774;28;21069;-77
2023/04/27 12:51:50;;;;;;;1.77;1.13;;;20.30;44.90;;;;;;4976234;28;20470;-77
2023/04/27 12:54:17;;;;;;;1.80;1.10;;;20.30;45.00;;;;;;4976372;28;20449;-77
2023/04/27 12:56:44;;;;;;;1.60;1.10;;;20.20;47.10;;;;;;4976008;28;20477;-77
2023/04/27 12:59:11;;;;;;;2.67;1.13;;;20.40;45.40;;;;;;4975833;28;20801;-76
2023/04/27 13:01:39;;;;;;;2.47;1.33;;;20.00;45.60;;;;;;4976085;28;20486;-76
2023/04/27 13:04:07;;;;;;;1.70;1.10;;;19.40;45.50;;;;;;4975725;28;20457;-76
2023/04/27 13:06:34;;;;;;;2.17;1.20;;;19.30;46.30;;;;;;4975403;28;20612;-77
2023/04/27 13:09:01;;;;;;;1.70;1.07;;;19.60;46.40;;;;;;4975312;28;20855;-76
2023/04/27 13:11:28;;;;;;;3.33;1.40;;;19.70;44.90;;;;;;4975330;28;20501;-76
2023/04/27 13:13:54;;;;;;;1.97;1.10;;;19.80;45.80;;;;;;4975330;28;20864;-76
2023/04/27 13:16:23;;;;;;;2.80;1.60;;;20.00;45.70;;;;;;4975188;28;20478;-76
2023/04/27 13:18:52;;;;;;;2.20;1.30;;;20.10;44.40;;;;;;4975258;28;20454;-76
2023/04/27 13:21:19;;;;;;;2.87;1.77;;;19.90;45.90;;;;;;4975018;28;20473;-76
2023/04/27 13:23:46;;;;;;;2.30;1.80;;;19.80;47.70;;;;;;4974861;28;20434;-75
2023/04/27 13:26:13;;;;;;;2.17;1.63;;;19.40;47.00;;;;;;4975154;28;20541;-76
2023/04/27 13:28:40;;;;;;;2.23;1.50;;;18.80;47.60;;;;;;4975145;28;20482;-76
2023/04/27 13:31:07;;;;;;;2.30;1.80;;;18.50;48.60;;;;;;4974906;28;20505;-76
2023/04/27 13:33:40;;;;;;;2.87;2.17;;;18.50;49.30;;;;;;4974857;28;20458;-76
2023/04/27 13:36:09;;;;;;;4.80;1.77;;;18.50;50.20;;;;;;4974883;28;20445;-76
2023/04/27 13:38:35;;;;;;;2.57;1.53;;;18.80;48.70;;;;;;4974916;28;20446;-77
2023/04/27 13:41:02;;;;;;;2.07;1.43;;;19.20;48.50;;;;;;4974673;28;20896;-76
2023/04/27 13:43:29;;;;;;;2.50;1.83;;;19.40;48.60;;;;;;4974753;28;20450;-76
2023/04/27 13:45:57;;;;;;;3.03;1.70;;;19.50;48.30;;;;;;4974265;28;20454;-76
2023/04/27 13:48:24;;;;;;;3.20;1.83;;;19.50;49.40;;;;;;4974312;28;20811;-76
2023/04/27 13:50:51;;;;;;;2.80;1.77;;;19.50;47.40;;;;;;4974458;28;20517;-75
2023/04/27 13:53:19;;;;;;;3.93;1.97;;;19.40;48.40;;;;;;4974364;28;20480;-76
2023/04/27 13:55:46;;;;;;;3.70;1.83;;;19.40;47.70;;;;;;4974480;28;20458;-76
2023/04/27 13:58:12;;;;;;;2.27;1.40;;;19.80;48.60;;;;;;4974508;28;20443;-76
2023/04/27 14:00:39;;;;;;;2.37;1.60;;;20.00;48.00;;;;;;4974094;28;20454;-75
2023/04/27 14:03:07;;;;;;;2.60;1.60;;;20.00;46.80;;;;;;4974533;28;20438;-76
2023/04/27 14:05:34;;;;;;;2.57;1.60;;;20.00;47.00;;;;;;4974431;28;20464;-76
2023/04/27 14:08:00;;;;;;;3.80;1.63;;;20.20;46.80;;;;;;4973971;28;20952;-75
2023/04/27 14:10:29;;;;;;;3.00;2.10;;;20.10;47.10;;;;;;4974821;28;20525;-75
2023/04/27 14:12:57;;;;;;;2.93;1.73;;;20.10;46.50;;;;;;4973879;28;20931;-75
2023/04/27 14:15:23;;;;;;;2.73;1.80;;;19.90;48.60;;;;;;4974363;28;20454;-76
2023/04/27 14:17:51;;;;;;;2.87;1.90;;;20.10;47.50;;;;;;4974487;28;20443;-77
2023/04/27 14:20:18;;;;;;;2.93;1.60;;;20.10;48.10;;;;;;4973914;28;20496;-76
2023/04/27 14:22:45;;;;;;;3.20;1.80;;;20.00;47.90;;;;;;4973779;28;21010;-76
2023/04/27 14:25:12;;;;;;;2.10;1.50;;;19.90;47.30;;;;;;4973808;28;20509;-76
2023/04/27 14:27:40;;;;;;;2.67;1.70;;;20.10;48.90;;;;;;4973861;28;20446;-76
2023/04/27 14:30:08;;;;;;;3.77;1.80;;;20.60;47.90;;;;;;4974261;28;20490;-76
2023/04/27 14:32:35;;;;;;;2.20;1.43;;;20.80;47.60;;;;;;4973994;28;20521;-76
2023/04/27 14:35:02;;;;;;;3.37;1.50;;;21.10;46.70;;;;;;4973657;28;20925;-76
2023/04/27 14:37:29;;;;;;;2.97;1.67;;;21.00;47.20;;;;;;4973697;28;20991;-76
2023/04/27 14:39:57;;;;;;;2.30;1.40;;;21.20;45.90;;;;;;4973671;28;20854;-75
2023/04/27 14:42:23;;;;;;;2.13;1.23;;;21.30;44.80;;;;;;4973834;28;20469;-76
2023/04/27 14:44:51;;;;;;;3.27;1.93;;;21.20;45.10;;;;;;4973942;28;20450;-75
2023/04/27 14:47:18;;;;;;;1.80;1.30;;;21.10;45.40;;;;;;4973716;28;20450;-76
2023/04/27 14:49:45;;;;;;;3.30;1.60;;;21.10;45.70;;;;;;4973696;28;20486;-76
2023/04/27 14:52:11;;;;;;;3.10;1.20;;;21.20;45.80;;;;;;4973713;28;20838;-76
2023/04/27 14:54:40;;;;;;;1.97;1.20;;;21.40;45.00;;;;;;4973601;28;20883;-76
2023/04/27 14:57:07;;;;;;;2.20;1.30;;;21.10;44.40;;;;;;4973616;28;20524;-76
2023/04/27 14:59:34;;;;;;;2.00;1.03;;;20.50;45.30;;;;;;4973787;28;20458;-77
2023/04/27 15:02:02;;;;;;;2.20;1.80;;;20.70;46.10;;;;;;4975029;28;20482;-77
2023/04/27 15:04:29;;;;;;;3.00;1.60;;;20.90;46.50;;;;;;4973499;28;21007;-77
2023/04/27 15:06:56;;;;;;;2.33;1.60;;;21.10;46.70;;;;;;4974109;28;20500;-76
2023/04/27 15:09:22;;;;;;;2.07;1.27;;;21.10;45.50;;;;;;4973685;28;20496;-77
2023/04/27 15:11:49;;;;;;;2.50;1.63;;;20.50;46.00;;;;;;4974231;28;20581;-77
2023/04/27 15:14:16;;;;;;;2.07;1.33;;;20.00;47.00;;;;;;4974237;28;20509;-77
2023/04/27 15:16:42;;;;;;;2.07;1.47;;;20.30;47.30;;;;;;4973733;28;20816;-77
2023/04/27 15:19:10;;;;;;;2.03;1.10;;;21.00;46.20;;;;;;4974098;28;20481;-77
2023/04/27 15:21:37;;;;;;;2.90;1.30;;;21.50;45.80;;;;;;4973917;28;20474;-78
2023/04/27 15:24:04;;;;;;;1.87;1.30;;;21.70;46.30;;;;;;4973933;28;20680;-77
2023/04/27 15:26:30;;;;;;;1.80;1.07;;;21.60;45.20;;;;;;4974008;28;20796;-77
2023/04/27 15:28:58;;;;;;;3.30;1.17;;;21.50;44.40;;;;;;4973677;28;21077;-77
2023/04/27 15:31:25;;;;;;;2.00;1.30;;;21.40;45.30;;;;;;4973595;28;21038;-77
2023/04/27 15:33:52;;;;;;;3.33;1.20;;;21.60;46.00;;;;;;4973568;28;20457;-77
2023/04/27 15:36:21;;;;;;;3.10;1.40;;;22.00;45.20;;;;;;4973555;28;20454;-77
2023/04/27 15:38:48;;;;;;;2.77;1.50;;;22.00;45.40;;;;;;4973447;28;20896;-77
2023/04/27 15:41:15;;;;;;;1.93;1.20;;;22.00;45.40;;;;;;4975565;28;20469;-77
2023/04/27 15:43:42;;;;;;;2.17;1.20;;;22.00;44.00;;;;;;4976999;28;20866;-77
2023/04/27 15:46:09;;;;;;;2.10;1.20;;;22.00;45.40;;;;;;4976524;28;20464;-78
2023/04/27 15:48:35;;;;;;;2.83;1.20;;;21.70;45.70;;;;;;4976792;28;20454;-77
2023/04/27 15:51:02;;;;;;;3.13;1.70;;;21.70;45.80;;;;;;4976667;28;20897;-77
2023/04/27 15:53:31;;;;;;;2.27;1.20;;;21.40;45.80;;;;;;4976409;28;20485;-77
2023/04/27 15:55:57;;;;;;;2.87;1.30;;;21.10;46.10;;;;;;4976929;28;20509;-77
2023/04/27 15:58:24;;;;;;;2.27;1.30;;;20.50;46.50;;;;;;4976722;28;20529;-77
2023/04/27 16:00:51;;;;;;;2.30;1.50;;;20.20;47.20;;;;;;4976362;28;20952;-76
2023/04/27 16:03:18;;;;;;;2.77;1.43;;;20.40;48.00;;;;;;4976621;28;20501;-76
2023/04/27 16:05:44;;;;;;;3.97;1.60;;;20.30;47.40;;;;;;4976586;28;20517;-76
2023/04/27 16:08:11;;;;;;;5.20;1.50;;;20.20;47.50;;;;;;4976736;28;20454;-77
2023/04/27 16:10:41;;;;;;;4.53;1.40;;;20.10;48.60;;;;;;4976391;28;20482;-76
2023/04/27 16:13:07;;;;;;;2.33;1.33;;;19.90;48.70;;;;;;4976483;28;20536;-78
2023/04/27 16:15:34;;;;;;;3.43;1.40;;;19.50;48.80;;;;;;4976453;28;20446;-77
2023/04/27 16:18:01;;;;;;;3.53;3.00;;;19.70;49.00;;;;;;5000000;23;20450;-75
2023/04/27 16:20:29;;;;;;;2.93;1.70;;;19.90;48.60;;;;;;4976800;28;20430;-75
2023/04/27 16:22:56;;;;;;;1.97;1.30;;;20.10;49.40;;;;;;4976720;28;20482;-75
2023/04/27 16:25:23;;;;;;;3.33;1.87;;;20.00;48.20;;;;;;4976644;28;20477;-76
2023/04/27 16:27:51;;;;;;;8.23;3.60;;;19.80;48.90;;;;;;4977236;28;20509;-76
2023/04/27 16:30:18;;;;;;;3.40;1.50;;;19.90;48.40;;;;;;4977090;28;20482;-73
2023/04/27 16:32:44;;;;;;;3.43;1.73;;;20.10;48.30;;;;;;4976522;28;20450;-76
2023/04/27 16:35:11;;;;;;;5.63;1.63;;;20.20;48.40;;;;;;4976474;28;20470;-77
2023/04/27 16:37:38;;;;;;;7.20;2.17;;;20.20;48.90;;;;;;4976167;28;20948;-75
2023/04/27 16:40:07;;;;;;;8.00;2.93;;;20.00;48.50;;;;;;4975971;28;20915;-76
2023/04/27 16:42:34;;;;;;;3.90;2.10;;;19.70;48.60;;;;;;4976303;28;20603;-74
2023/04/27 16:45:02;;;;;;;2.20;1.70;;;19.60;49.00;;;;;;4976292;28;20450;-74
2023/04/27 16:47:30;;;;;;;5.03;1.90;;;19.50;49.80;;;;;;4976250;28;20446;-74
2023/04/27 16:49:57;;;;;;;7.83;1.70;;;19.60;49.80;;;;;;4976097;28;20858;-76